createdAt,value
2022-11-17T00:01:22.428Z,16.82
2022-11-17T00:03:49.358Z,16.77
2022-11-17T00:06:15.714Z,16.73
2022-11-17T00:08:43.308Z,16.70
2022-11-17T00:11:10.591Z,16.66
2022-11-17T00:13:37.236Z,16.61
2022-11-17T00:16:03.661Z,16.58
2022-11-17T00:18:29.964Z,16.54
2022-11-17T00:20:56.367Z,16.50
2022-11-17T00:23:22.663Z,16.46
2022-11-17T00:25:48.991Z,16.44
2022-11-17T00:28:15.316Z,16.40
2022-11-17T00:30:43.909Z,16.37
2022-11-17T00:33:10.399Z,16.33
2022-11-17T00:35:36.731Z,16.29
2022-11-17T00:38:03.055Z,16.25
2022-11-17T00:40:29.479Z,16.22
2022-11-17T00:42:56.074Z,16.20
2022-11-17T00:45:22.366Z,16.15
2022-11-17T00:47:48.694Z,16.12
2022-11-17T00:50:15.134Z,16.08
2022-11-17T00:52:41.369Z,16.05
2022-11-17T00:55:07.854Z,16.04
2022-11-17T00:57:34.593Z,16.00
2022-11-17T01:00:00.937Z,15.96
2022-11-17T01:02:27.544Z,15.93
2022-11-17T01:04:53.849Z,15.90
2022-11-17T01:07:20.209Z,15.86
2022-11-17T01:09:46.626Z,15.84
2022-11-17T01:12:12.949Z,15.81
2022-11-17T01:14:39.371Z,15.77
2022-11-17T01:17:05.738Z,15.74
2022-11-17T01:19:32.990Z,15.71
2022-11-17T01:21:59.584Z,15.70
2022-11-17T01:24:26.080Z,15.66
2022-11-17T01:26:52.359Z,15.64
2022-11-17T01:29:18.682Z,15.61
2022-11-17T01:31:45.157Z,15.59
2022-11-17T01:34:11.819Z,15.56
2022-11-17T01:36:38.109Z,15.54
2022-11-17T01:39:04.869Z,15.51
2022-11-17T01:41:31.494Z,15.49
2022-11-17T01:43:57.782Z,15.46
2022-11-17T01:46:24.073Z,15.45
2022-11-17T01:48:50.393Z,15.42
2022-11-17T01:51:16.999Z,15.40
2022-11-17T01:53:43.544Z,15.39
2022-11-17T01:56:09.926Z,15.36
2022-11-17T01:58:36.188Z,15.33
2022-11-17T02:01:07.249Z,15.30
2022-11-17T02:03:33.932Z,15.28
2022-11-17T02:06:00.920Z,15.25
2022-11-17T02:08:27.191Z,15.23
2022-11-17T02:10:54.372Z,15.20
2022-11-17T02:13:21.652Z,15.19
2022-11-17T02:15:48.081Z,15.15
2022-11-17T02:18:14.380Z,15.12
2022-11-17T02:20:40.624Z,15.09
2022-11-17T02:23:07.961Z,15.07
2022-11-17T02:25:37.773Z,15.05
2022-11-17T02:28:04.081Z,15.03
2022-11-17T02:30:31.348Z,14.99
2022-11-17T02:32:57.612Z,14.97
2022-11-17T02:35:24.013Z,14.94
2022-11-17T02:37:51.093Z,14.90
2022-11-17T02:40:17.375Z,14.90
2022-11-17T02:42:43.620Z,14.86
2022-11-17T02:45:09.936Z,14.82
2022-11-17T02:47:36.615Z,14.81
2022-11-17T02:50:03.835Z,14.78
2022-11-17T02:52:30.709Z,14.75
2022-11-17T02:54:57.079Z,14.73
2022-11-17T02:57:24.000Z,14.70
2022-11-17T02:59:50.333Z,14.67
2022-11-17T03:02:16.702Z,14.65
2022-11-17T03:04:43.203Z,14.62
2022-11-17T03:07:09.545Z,14.61
2022-11-17T03:09:36.435Z,14.60
2022-11-17T03:12:02.662Z,14.59
2022-11-17T03:14:29.053Z,14.57
2022-11-17T03:16:55.419Z,14.54
2022-11-17T03:19:21.944Z,14.52
2022-11-17T03:21:48.226Z,14.50
2022-11-17T03:24:14.918Z,14.49
2022-11-17T03:26:41.228Z,14.45
2022-11-17T03:29:08.120Z,14.44
2022-11-17T03:31:35.796Z,14.41
2022-11-17T03:34:02.149Z,14.39
2022-11-17T03:36:28.432Z,14.36
2022-11-17T03:38:54.720Z,14.34
2022-11-17T03:41:21.126Z,14.32
2022-11-17T03:43:47.464Z,14.29
2022-11-17T03:46:13.830Z,14.28
2022-11-17T03:48:40.173Z,14.25
2022-11-17T03:51:06.956Z,14.21
2022-11-17T03:53:34.912Z,14.19
2022-11-17T03:56:01.492Z,14.18
2022-11-17T03:58:27.795Z,14.15
2022-11-17T04:00:54.070Z,14.12
2022-11-17T04:03:20.440Z,14.10
2022-11-17T04:05:47.212Z,14.08
2022-11-17T04:08:13.497Z,14.06
2022-11-17T04:10:39.872Z,14.05
2022-11-17T04:13:06.128Z,14.02
2022-11-17T04:15:32.458Z,14.00
2022-11-17T04:17:58.808Z,13.97
2022-11-17T04:20:25.113Z,13.96
2022-11-17T04:22:51.749Z,13.94
2022-11-17T04:25:18.260Z,13.91
2022-11-17T04:27:44.576Z,13.87
2022-11-17T04:30:10.965Z,13.87
2022-11-17T04:32:37.233Z,13.84
2022-11-17T04:35:09.815Z,13.83
2022-11-17T04:37:36.162Z,13.80
2022-11-17T04:40:02.527Z,13.78
2022-11-17T04:42:28.912Z,13.75
2022-11-17T04:44:55.287Z,13.74
2022-11-17T04:47:22.295Z,13.72
2022-11-17T04:49:48.644Z,13.70
2022-11-17T04:52:15.139Z,13.67
2022-11-17T04:54:41.453Z,13.65
2022-11-17T04:57:07.919Z,13.64
2022-11-17T04:59:34.979Z,13.62
2022-11-17T05:02:05.965Z,13.61
2022-11-17T05:04:32.699Z,13.60
2022-11-17T05:06:59.015Z,13.57
2022-11-17T05:09:25.308Z,13.55
2022-11-17T05:11:51.604Z,13.53
2022-11-17T05:14:17.969Z,13.50
2022-11-17T05:16:44.286Z,13.49
2022-11-17T05:19:10.679Z,13.49
2022-11-17T05:24:21.704Z,13.44
2022-11-17T05:26:48.649Z,13.43
2022-11-17T05:29:15.862Z,13.40
2022-11-17T05:31:42.197Z,13.37
2022-11-17T05:34:08.873Z,13.36
2022-11-17T05:36:35.229Z,13.34
2022-11-17T05:39:02.573Z,13.32
2022-11-17T05:41:28.960Z,13.31
2022-11-17T05:43:55.300Z,13.29
2022-11-17T05:46:22.203Z,13.27
2022-11-17T05:48:49.857Z,13.25
2022-11-17T05:51:16.174Z,13.24
2022-11-17T05:53:42.553Z,13.22
2022-11-17T05:56:08.917Z,13.21
2022-11-17T05:58:35.985Z,13.20
2022-11-17T06:01:03.046Z,13.18
2022-11-17T06:03:29.764Z,13.18
2022-11-17T06:05:56.069Z,13.17
2022-11-17T06:08:22.381Z,13.15
2022-11-17T06:10:48.669Z,13.15
2022-11-17T06:13:15.302Z,13.14
2022-11-17T06:15:41.994Z,13.12
2022-11-17T06:18:08.543Z,13.11
2022-11-17T06:20:34.805Z,13.10
2022-11-17T06:23:01.186Z,13.07
2022-11-17T06:25:27.499Z,13.05
2022-11-17T06:27:54.224Z,13.04
2022-11-17T06:30:20.508Z,13.02
2022-11-17T06:32:47.063Z,13.01
2022-11-17T06:35:13.865Z,12.99
2022-11-17T06:37:40.204Z,12.98
2022-11-17T06:40:06.556Z,12.95
2022-11-17T06:42:33.381Z,12.93
2022-11-17T06:44:59.738Z,12.91
2022-11-17T06:47:26.057Z,12.90
2022-11-17T06:49:53.618Z,12.86
2022-11-17T06:52:20.304Z,12.85
2022-11-17T06:54:46.639Z,12.84
2022-11-17T06:57:12.904Z,12.82
2022-11-17T06:59:39.171Z,12.81
2022-11-17T07:02:05.513Z,12.79
2022-11-17T07:04:32.234Z,12.78
2022-11-17T07:07:01.556Z,12.76
2022-11-17T07:09:28.521Z,12.73
2022-11-17T07:11:54.769Z,12.76
2022-11-17T07:14:21.173Z,12.92
2022-11-17T07:16:47.557Z,13.17
2022-11-17T07:19:14.905Z,13.41
2022-11-17T07:21:41.260Z,13.63
2022-11-17T07:24:07.651Z,13.84
2022-11-17T07:26:34.430Z,13.99
2022-11-17T07:29:00.809Z,14.13
2022-11-17T07:31:33.403Z,14.23
2022-11-17T07:33:59.709Z,14.33
2022-11-17T07:36:26.386Z,14.41
2022-11-17T07:38:52.663Z,14.50
2022-11-17T07:41:20.646Z,14.58
2022-11-17T07:43:47.011Z,14.64
2022-11-17T07:46:13.485Z,14.69
2022-11-17T07:48:40.075Z,14.73
2022-11-17T07:51:06.478Z,14.77
2022-11-17T07:53:33.419Z,14.82
2022-11-17T07:55:59.821Z,14.87
2022-11-17T07:58:26.362Z,14.90
2022-11-17T08:00:52.744Z,14.93
2022-11-17T08:03:19.460Z,14.95
2022-11-17T08:05:48.972Z,14.99
2022-11-17T08:08:15.624Z,15.03
2022-11-17T08:10:42.298Z,15.07
2022-11-17T08:13:08.582Z,15.13
2022-11-17T08:15:35.147Z,15.20
2022-11-17T08:18:01.492Z,15.27
2022-11-17T08:20:27.813Z,15.38
2022-11-17T08:22:54.822Z,15.51
2022-11-17T08:25:21.147Z,15.67
2022-11-17T08:27:47.487Z,15.83
2022-11-17T08:30:13.832Z,15.96
2022-11-17T08:32:40.854Z,16.15
2022-11-17T08:35:07.417Z,16.33
2022-11-17T08:37:33.740Z,16.48
2022-11-17T08:40:00.057Z,16.63
2022-11-17T08:42:26.356Z,16.78
2022-11-17T08:44:52.689Z,16.90
2022-11-17T08:47:18.955Z,17.03
2022-11-17T08:49:45.434Z,17.13
2022-11-17T08:52:12.323Z,17.24
2022-11-17T08:54:39.631Z,17.37
2022-11-17T08:57:06.380Z,17.46
2022-11-17T08:59:32.706Z,17.54
2022-11-17T09:01:59.260Z,17.60
2022-11-17T09:04:25.556Z,17.70
2022-11-17T09:06:51.902Z,17.72
2022-11-17T09:09:18.286Z,17.72
2022-11-17T09:11:44.582Z,17.71
2022-11-17T09:14:11.813Z,17.68
2022-11-17T09:16:38.252Z,17.67
2022-11-17T09:19:04.610Z,17.66
2022-11-17T09:21:31.763Z,17.64
2022-11-17T09:23:58.066Z,17.61
2022-11-17T09:26:24.515Z,17.56
2022-11-17T09:28:50.891Z,17.50
2022-11-17T09:31:17.458Z,17.42
2022-11-17T09:33:44.320Z,17.37
2022-11-17T09:36:10.604Z,17.31
2022-11-17T09:38:37.496Z,17.30
2022-11-17T09:41:04.295Z,17.29
2022-11-17T09:43:30.605Z,17.28
2022-11-17T09:45:57.289Z,17.29
2022-11-17T09:48:40.607Z,17.29
2022-11-17T09:51:07.284Z,17.27
2022-11-17T09:53:33.764Z,17.25
2022-11-17T09:56:00.276Z,17.25
2022-11-17T09:58:26.796Z,17.24
2022-11-17T10:00:53.072Z,17.23
2022-11-17T10:03:19.401Z,17.24
2022-11-17T10:05:45.699Z,17.25
2022-11-17T10:08:11.976Z,17.26
2022-11-17T10:10:38.283Z,17.28
2022-11-17T10:13:05.063Z,17.30
2022-11-17T10:15:31.314Z,17.31
2022-11-17T10:17:58.409Z,17.35
2022-11-17T10:20:25.295Z,17.35
2022-11-17T10:22:51.544Z,17.36
2022-11-17T10:25:17.859Z,17.36
2022-11-17T10:27:44.222Z,17.37
2022-11-17T10:30:10.789Z,17.37
2022-11-17T10:32:42.719Z,17.36
2022-11-17T10:35:11.704Z,17.36
2022-11-17T10:37:38.017Z,17.36
2022-11-17T10:40:04.295Z,17.36
2022-11-17T10:42:31.472Z,17.34
2022-11-17T10:44:58.410Z,17.33
2022-11-17T10:47:25.401Z,17.32
2022-11-17T10:49:52.404Z,17.33
2022-11-17T10:52:18.675Z,17.31
2022-11-17T10:54:45.029Z,17.32
2022-11-17T10:57:11.297Z,17.35
2022-11-17T10:59:37.624Z,17.36
2022-11-17T11:02:04.056Z,17.37
2022-11-17T11:04:30.407Z,17.36
2022-11-17T11:06:56.749Z,17.36
2022-11-17T11:09:23.085Z,17.33
2022-11-17T11:11:49.651Z,17.32
2022-11-17T11:14:16.773Z,17.32
2022-11-17T11:16:47.784Z,17.33
2022-11-17T11:19:15.305Z,17.33
2022-11-17T11:21:41.738Z,17.33
2022-11-17T11:24:08.030Z,17.32
2022-11-17T11:26:34.435Z,17.33
2022-11-17T11:29:01.386Z,17.34
2022-11-17T11:31:27.701Z,17.34
2022-11-17T11:33:54.017Z,17.35
2022-11-17T11:36:20.403Z,17.36
2022-11-17T11:38:46.709Z,17.39
2022-11-17T11:41:16.117Z,17.41
2022-11-17T11:43:42.405Z,17.43
2022-11-17T11:46:08.656Z,17.43
2022-11-17T11:48:35.096Z,17.31
2022-11-17T11:51:02.299Z,17.46
2022-11-17T11:53:28.717Z,17.46
2022-11-17T11:55:55.575Z,17.48
2022-11-17T11:58:21.868Z,17.50
2022-11-17T12:00:48.369Z,17.50
2022-11-17T12:03:15.291Z,17.50
2022-11-17T12:05:42.258Z,17.52
2022-11-17T12:08:10.894Z,17.51
2022-11-17T12:10:37.480Z,17.49
2022-11-17T12:13:04.273Z,17.48
2022-11-17T12:15:30.723Z,17.48
2022-11-17T12:17:57.155Z,17.49
2022-11-17T12:20:23.425Z,17.50
2022-11-17T12:22:49.823Z,17.49
2022-11-17T12:25:16.197Z,17.51
2022-11-17T12:27:42.756Z,17.49
2022-11-17T12:30:09.260Z,17.49
2022-11-17T12:32:39.378Z,17.50
2022-11-17T12:35:05.632Z,17.50
2022-11-17T12:37:31.967Z,17.51
2022-11-17T12:39:58.236Z,17.52
2022-11-17T12:42:24.860Z,17.53
2022-11-17T12:44:51.195Z,17.54
2022-11-17T12:47:17.847Z,17.55
2022-11-17T12:49:44.201Z,17.55
2022-11-17T12:52:10.468Z,17.56
2022-11-17T12:54:37.421Z,17.61
2022-11-17T12:57:03.698Z,17.62
2022-11-17T12:59:30.038Z,17.62
2022-11-17T13:01:56.435Z,17.63
2022-11-17T13:04:22.847Z,17.67
2022-11-17T13:06:49.841Z,17.70
2022-11-17T13:09:16.409Z,17.74
2022-11-17T13:11:43.226Z,17.76
2022-11-17T13:14:10.038Z,17.78
2022-11-17T13:16:36.810Z,17.79
2022-11-17T13:19:03.173Z,17.83
2022-11-17T13:21:29.555Z,17.85
2022-11-17T13:23:56.423Z,17.84
2022-11-17T13:26:22.669Z,17.89
2022-11-17T13:28:49.331Z,17.92
2022-11-17T13:31:16.382Z,17.93
2022-11-17T13:33:42.677Z,17.95
2022-11-17T13:36:08.920Z,17.96
2022-11-17T13:38:35.374Z,17.85
2022-11-17T13:41:01.799Z,17.99
2022-11-17T13:43:28.472Z,18.00
2022-11-17T13:45:54.849Z,17.96
2022-11-17T13:48:21.211Z,18.02
2022-11-17T13:50:47.481Z,18.03
2022-11-17T13:53:13.761Z,18.03
2022-11-17T13:55:40.053Z,18.03
2022-11-17T13:58:06.366Z,18.02
2022-11-17T14:00:32.803Z,18.03
2022-11-17T14:02:59.043Z,18.01
2022-11-17T14:05:25.390Z,18.01
2022-11-17T14:07:52.358Z,18.00
2022-11-17T14:10:18.838Z,18.01
2022-11-17T14:12:45.903Z,18.02
2022-11-17T14:15:12.186Z,18.02
2022-11-17T14:17:38.571Z,18.02
2022-11-17T14:20:05.020Z,18.01
2022-11-17T14:22:32.106Z,18.01
2022-11-17T14:24:58.481Z,17.99
2022-11-17T14:27:24.815Z,17.99
2022-11-17T14:29:51.277Z,17.97
2022-11-17T14:32:17.908Z,17.98
2022-11-17T14:34:44.215Z,17.96
2022-11-17T14:37:11.650Z,17.95
2022-11-17T14:39:38.301Z,17.94
2022-11-17T14:42:04.647Z,17.94
2022-11-17T14:44:30.984Z,17.94
2022-11-17T14:46:57.289Z,17.94
2022-11-17T14:49:23.569Z,17.95
2022-11-17T14:51:49.876Z,17.96
2022-11-17T14:54:17.798Z,17.98
2022-11-17T14:56:44.551Z,17.99
2022-11-17T14:59:10.822Z,17.99
2022-11-17T15:01:39.530Z,18.02
2022-11-17T15:04:21.095Z,18.02
2022-11-17T15:06:52.315Z,18.03
2022-11-17T15:09:19.744Z,18.06
2022-11-17T15:11:46.981Z,18.13
2022-11-17T15:14:13.681Z,18.19
2022-11-17T15:16:40.375Z,18.29
2022-11-17T15:19:06.831Z,18.41
2022-11-17T15:21:33.581Z,18.56
2022-11-17T15:23:59.848Z,18.69
2022-11-17T15:26:26.258Z,18.79
2022-11-17T15:28:52.522Z,18.90
2022-11-17T15:31:18.942Z,18.98
2022-11-17T15:33:45.969Z,19.08
2022-11-17T15:36:12.401Z,19.17
2022-11-17T15:38:38.734Z,19.26
2022-11-17T15:41:04.987Z,19.34
2022-11-17T15:43:31.372Z,19.41
2022-11-17T15:45:57.675Z,19.49
2022-11-17T15:48:24.012Z,19.56
2022-11-17T15:50:51.308Z,19.64
2022-11-17T15:53:17.550Z,19.74
2022-11-17T15:55:43.854Z,19.83
2022-11-17T15:58:10.206Z,19.91
2022-11-17T16:00:37.597Z,19.97
2022-11-17T16:03:03.867Z,19.99
2022-11-17T16:05:30.478Z,20.03
2022-11-17T16:07:56.788Z,20.07
2022-11-17T16:10:23.043Z,20.08
2022-11-17T16:12:49.290Z,20.07
2022-11-17T16:15:15.666Z,20.09
2022-11-17T16:17:41.931Z,20.08
2022-11-17T16:20:08.335Z,20.05
2022-11-17T16:22:35.523Z,20.02
2022-11-17T16:25:01.867Z,19.99
2022-11-17T16:27:28.554Z,19.94
2022-11-17T16:29:55.044Z,19.90
2022-11-17T16:32:21.455Z,19.86
2022-11-17T16:34:47.748Z,19.80
2022-11-17T16:37:14.734Z,19.77
2022-11-17T16:39:41.317Z,19.72
2022-11-17T16:42:07.582Z,19.68
2022-11-17T16:44:34.184Z,19.64
2022-11-17T16:47:00.561Z,19.62
2022-11-17T16:49:26.817Z,19.57
2022-11-17T16:51:53.111Z,19.52
2022-11-17T16:54:22.633Z,19.50
2022-11-17T16:56:48.799Z,19.47
2022-11-17T16:59:16.267Z,19.43
2022-11-17T17:01:43.136Z,19.41
2022-11-17T17:04:09.477Z,19.38
2022-11-17T17:06:36.340Z,19.36
2022-11-17T17:09:02.665Z,19.34
2022-11-17T17:11:28.962Z,19.32
2022-11-17T17:13:55.936Z,19.28
2022-11-17T17:16:22.194Z,19.25
2022-11-17T17:18:48.612Z,19.22
2022-11-17T17:21:16.261Z,19.18
2022-11-17T17:23:42.588Z,19.17
2022-11-17T17:26:08.973Z,19.14
2022-11-17T17:28:35.276Z,19.10
2022-11-17T17:31:01.658Z,19.07
2022-11-17T17:33:28.196Z,19.04
2022-11-17T17:35:54.556Z,19.02
2022-11-17T17:38:20.940Z,19.00
2022-11-17T17:40:47.264Z,19.00
2022-11-17T17:43:13.602Z,18.99
2022-11-17T17:45:40.401Z,19.04
2022-11-17T17:48:06.697Z,19.11
2022-11-17T17:50:33.016Z,19.22
2022-11-17T17:52:59.684Z,19.34
2022-11-17T17:55:27.045Z,19.45
2022-11-17T17:57:54.049Z,19.54
2022-11-17T18:00:20.492Z,19.65
2022-11-17T18:02:47.060Z,19.74
2022-11-17T18:05:14.016Z,19.81
2022-11-17T18:07:40.420Z,19.91
2022-11-17T18:10:07.560Z,19.96
2022-11-17T18:12:34.032Z,20.02
2022-11-17T18:15:00.384Z,20.04
2022-11-17T18:17:26.701Z,20.08
2022-11-17T18:19:53.073Z,20.09
2022-11-17T18:22:19.466Z,20.08
2022-11-17T18:24:46.097Z,20.11
2022-11-17T18:27:13.037Z,20.11
2022-11-17T18:29:39.625Z,20.11
2022-11-17T18:32:06.065Z,20.09
2022-11-17T18:34:33.251Z,20.05
2022-11-17T18:36:59.654Z,20.03
2022-11-17T18:39:26.031Z,20.01
2022-11-17T18:41:52.344Z,19.97
2022-11-17T18:44:18.960Z,19.93
2022-11-17T18:46:45.340Z,19.89
2022-11-17T18:49:11.924Z,19.86
2022-11-17T18:51:38.228Z,19.83
2022-11-17T18:54:04.560Z,19.79
2022-11-17T18:56:30.925Z,19.73
2022-11-17T18:58:57.827Z,19.67
2022-11-17T19:01:24.401Z,19.64
2022-11-17T19:03:50.733Z,19.61
2022-11-17T19:06:17.113Z,19.56
2022-11-17T19:08:43.984Z,19.53
2022-11-17T19:11:10.616Z,19.47
2022-11-17T19:13:36.899Z,19.42
2022-11-17T19:16:03.228Z,19.37
2022-11-17T19:18:29.575Z,19.33
2022-11-17T19:20:55.942Z,19.30
2022-11-17T19:23:22.240Z,19.27
2022-11-17T19:25:48.548Z,19.25
2022-11-17T19:28:15.020Z,19.23
2022-11-17T19:30:41.975Z,19.20
2022-11-17T19:33:08.345Z,19.18
2022-11-17T19:35:34.979Z,19.16
2022-11-17T19:38:02.141Z,19.14
2022-11-17T19:40:28.517Z,19.09
2022-11-17T19:42:54.821Z,19.07
2022-11-17T19:45:21.229Z,19.04
2022-11-17T19:47:47.495Z,19.02
2022-11-17T19:50:13.889Z,18.99
2022-11-17T19:52:40.981Z,18.96
2022-11-17T19:55:08.058Z,18.96
2022-11-17T19:57:34.611Z,18.97
2022-11-17T20:00:00.944Z,18.99
2022-11-17T20:02:28.247Z,19.05
2022-11-17T20:04:54.729Z,19.13
2022-11-17T20:07:21.180Z,19.23
2022-11-17T20:09:47.474Z,19.33
2022-11-17T20:12:13.984Z,19.42
2022-11-17T20:14:40.279Z,19.50
2022-11-17T20:17:07.241Z,19.60
2022-11-17T20:19:34.055Z,19.66
2022-11-17T20:22:00.409Z,19.74
2022-11-17T20:24:27.667Z,19.81
2022-11-17T20:26:54.286Z,19.88
2022-11-17T20:29:20.680Z,19.92
2022-11-17T20:31:47.446Z,19.95
2022-11-17T20:34:13.746Z,19.99
2022-11-17T20:36:40.044Z,19.99
2022-11-17T20:39:06.553Z,19.97
2022-11-17T20:41:33.343Z,19.95
2022-11-17T20:43:59.782Z,19.92
2022-11-17T20:46:26.268Z,19.89
2022-11-17T20:48:53.117Z,19.87
2022-11-17T20:51:19.403Z,19.83
2022-11-17T20:53:45.797Z,19.78
2022-11-17T20:56:12.138Z,19.73
2022-11-17T20:58:38.512Z,19.71
2022-11-17T21:01:06.191Z,19.69
2022-11-17T21:03:32.520Z,19.67
2022-11-17T21:05:59.612Z,19.60
2022-11-17T21:08:26.041Z,19.54
2022-11-17T21:10:52.335Z,19.49
2022-11-17T21:13:18.689Z,19.47
2022-11-17T21:15:45.050Z,19.44
2022-11-17T21:18:13.223Z,19.40
2022-11-17T21:20:43.268Z,19.36
2022-11-17T21:23:13.532Z,19.33
2022-11-17T21:25:41.337Z,19.28
2022-11-17T21:28:08.921Z,19.25
2022-11-17T21:30:36.886Z,19.23
2022-11-17T21:33:06.887Z,19.22
2022-11-17T21:35:33.806Z,19.19
2022-11-17T21:38:04.100Z,19.17
2022-11-17T21:40:33.201Z,19.15
2022-11-17T21:43:01.486Z,19.14
2022-11-17T21:45:28.916Z,19.12
2022-11-17T21:47:59.381Z,19.11
2022-11-17T21:50:34.169Z,19.08
2022-11-17T21:53:06.896Z,19.07
2022-11-17T21:55:35.418Z,19.07
2022-11-17T21:58:03.093Z,19.06
2022-11-17T22:00:34.351Z,19.04
2022-11-17T22:03:19.477Z,19.04
2022-11-17T22:05:52.014Z,19.03
2022-11-17T22:08:19.872Z,19.02
2022-11-17T22:10:48.579Z,19.01
2022-11-17T22:13:25.010Z,19.04
2022-11-17T22:15:59.320Z,19.06
2022-11-17T22:21:13.190Z,19.16
2022-11-17T22:23:42.255Z,19.24
2022-11-17T22:26:08.637Z,19.32
2022-11-17T22:28:36.554Z,19.40
2022-11-17T22:31:13.535Z,19.48
2022-11-17T22:33:46.967Z,19.55
2022-11-17T22:36:14.782Z,19.63
2022-11-17T22:38:43.999Z,19.70
2022-11-17T22:41:12.413Z,19.74
2022-11-17T22:43:39.047Z,19.79
2022-11-17T22:46:05.871Z,19.81
2022-11-17T22:48:35.767Z,19.84
2022-11-17T22:51:02.670Z,19.84
2022-11-17T22:53:29.624Z,19.84
2022-11-17T22:55:56.589Z,19.84
2022-11-17T22:58:24.899Z,19.79
2022-11-17T23:00:58.882Z,19.75
2022-11-17T23:03:27.269Z,19.68
2022-11-17T23:05:54.036Z,19.63
2022-11-17T23:08:20.367Z,19.56
2022-11-17T23:10:46.658Z,19.50
2022-11-17T23:13:13.284Z,19.42
2022-11-17T23:15:39.692Z,19.34
2022-11-17T23:18:06.539Z,19.24
2022-11-17T23:20:33.193Z,19.18
2022-11-17T23:22:59.433Z,19.11
2022-11-17T23:25:26.406Z,19.05
2022-11-17T23:27:53.261Z,19.02
2022-11-17T23:30:19.588Z,19.00
2022-11-17T23:32:46.046Z,18.98
2022-11-17T23:35:13.741Z,18.96
2022-11-17T23:37:40.094Z,18.93
2022-11-17T23:40:06.481Z,18.88
2022-11-17T23:42:35.404Z,18.82
2022-11-17T23:45:03.684Z,18.77
2022-11-17T23:47:30.585Z,18.71
2022-11-17T23:49:56.842Z,18.66
2022-11-17T23:52:24.195Z,18.60
2022-11-17T23:54:50.604Z,18.55
2022-11-17T23:57:17.623Z,18.50
2022-11-17T23:59:44.750Z,18.46
